Huvudsida
METAR-TAF:

METAR-TAF

Flygplatser :

Tokyo-Hanedas internationella flygplats

Tokyo-Haneda, Japan

latitud: 35-33N, longitud: 139-47E, höjd: 5 m

Aktuellt väderrapport

Denna rapport gjordes för 19 minuter sedan, klockan 00:30 UTC
Vind 12 kt från nord/nordost
Temperatur 7°C
Fuktighet 53%
Tryck 1029 hPa
Sikt 10 km eller mer
Få moln på en höjd av 3000 ft
Brutna moln på en höjd av 5000 ft

METAR: RJTT 100030Z 02012KT 9999 FEW030 BKN050 07/M02 Q1029 NOSIG RMK 1CU030 7SC050 A3040

Tid: 09:49 (00:49 UTC)

Väderprognos

Denna rapport gjordes för 1 timme och 44 minuter sedan, klockan 23:05 UTC
Prognos gäller från 10 kl. 00 UTC till 11 kl. 06 UTC
Vind 12 kt från nord/nordost
Sikt 10 km eller mer
Få moln på en höjd av 3000 ft

TAF: RJTT 092305Z 1000/1106 02012KT 9999 FEW030

Aktuella väderrapporter och prognoser från 4000 flygplatser (METAR- och TAF-rapporter).

De tillgängliga stationerna syns som gula och röda prickar på kartan.

För musen över prickarna för att se namnen på stationerna.

Klicka sedan för att få väderrapporter och prognoser.

För att ändra kartan: Klicka på de gröna knapparna med ett svart kors på för att zooma in; den gröna knappen med ett streck på för att zooma ut; eller på de gröna pilarna för angränsande kartor.


METAR-TAF: